.
WxDataArchive / Data Records for 2015-06-27
2015-06-26 June 2015 2015-06-28

Data Records for Saturday, 27 June 2015

Time	Temp	Chill	HIndex	Humid	Dewpt	 Wind 	HiWind	WindDir	Rain 	Barom
-----	----	-----	------	-----	-----	------	------	-------	-----	-----
00:00	61.8	61.8	61.8	94	60.1	2	5	112	0.01	29.882 
00:05	61.8	61.8	61.8	94	60.1	1	6	90	0.01	29.882 
00:10	62.0	62.0	62.0	94	60.2	1	5	112	0.01	29.882 
00:15	62.0	62.0	62.0	94	60.2	2	10	112	0.01	29.876 
00:20	62.0	62.0	62.0	94	60.2	3	10	112	0.02	29.876 
00:25	62.0	62.0	62.0	94	60.2	4	11	90	0.01	29.876 
00:30	61.8	61.8	61.8	94	60.1	4	7	90	0.01	29.856 
00:35	61.8	61.8	61.8	94	60.1	3	9	112	0.01	29.856 
00:40	61.6	61.6	61.6	94	59.9	4	9	90	0.01	29.856 
00:45	61.5	61.5	61.5	94	59.8	4	12	90	0.00	29.851 
00:50	61.5	61.5	61.5	94	59.8	3	9	90	0.00	29.851 
00:55	61.3	61.3	61.3	94	59.6	4	15	90	0.00	29.851 
01:00	61.5	61.5	61.5	94	59.8	2	7	90	0.01	29.833 
01:05	61.5	61.5	61.5	94	59.8	4	14	90	0.00	29.833 
01:10	61.5	61.5	61.5	93	59.5	3	9	90	0.00	29.833 
01:15	61.6	61.6	61.6	93	59.6	3	12	90	0.00	29.819 
01:20	61.6	61.6	61.6	93	59.6	2	7	90	0.00	29.819 
01:25	61.5	61.5	61.5	93	59.5	3	6	112	0.00	29.819 
01:30	61.5	61.5	61.5	93	59.5	3	9	112	0.00	29.817 
01:35	61.5	61.5	61.5	93	59.5	1	7	90	0.01	29.817 
01:40	61.5	61.5	61.5	93	59.5	1	6	90	0.00	29.817 
01:45	61.5	61.5	61.5	93	59.5	2	9	68	0.01	29.802 
01:50	61.5	61.5	61.5	93	59.5	3	9	112	0.00	29.802 
01:55	61.5	61.5	61.5	93	59.5	3	9	135	0.01	29.802 
02:00	61.3	61.3	61.3	93	59.3	2	8	112	0.01	29.787 
02:05	61.2	61.2	61.2	93	59.2	2	8	90	0.01	29.787 
02:10	61.2	61.2	61.2	93	59.2	1	5	68	0.00	29.787 
02:15	61.2	61.2	61.2	93	59.2	1	6	90	0.01	29.802 
02:20	61.2	61.2	61.2	93	59.2	1	5	135	0.01	29.802 
02:25	61.2	61.2	61.2	93	59.2	1	6	68	0.02	29.802 
02:30	61.2	61.2	61.2	93	59.2	1	5	68	0.03	29.800 
02:35	61.2	61.2	61.2	93	59.2	2	9	90	0.05	29.800 
02:40	61.0	61.0	61.0	94	59.3	3	11	112	0.04	29.800 
02:45	60.9	60.9	60.9	94	59.2	3	6	90	0.03	29.797 
02:50	60.7	60.7	60.7	94	59.0	2	8	68	0.03	29.797 
02:55	60.5	60.5	60.5	94	58.8	2	12	90	0.02	29.797 
03:00	60.2	60.2	60.2	94	58.5	3	9	68	0.02	29.786 
03:05	59.9	59.9	59.9	94	58.2	2	10	112	0.02	29.786 
03:10	59.8	59.8	59.8	94	58.1	2	7	112	0.03	29.786 
03:15	59.8	59.8	59.8	94	58.1	3	11	22	0.02	29.778 
03:20	59.6	59.6	59.6	94	57.9	2	9	90	0.01	29.778 
03:25	59.5	59.5	59.5	94	57.8	4	10	90	0.01	29.778 
03:30	59.3	59.3	59.3	94	57.6	3	7	90	0.01	29.766 
03:35	59.2	59.2	59.2	94	57.5	4	11	68	0.02	29.766 
03:40	59.2	59.2	59.2	94	57.5	3	10	90	0.01	29.766 
03:45	59.2	59.2	59.2	94	57.5	3	11	22	0.02	29.760 
03:50	59.0	59.0	59.0	94	57.3	3	13	22	0.02	29.760 
03:55	58.7	58.7	58.7	94	57.0	2	7	112	0.02	29.760 
04:00	58.7	58.7	58.7	94	57.0	4	12	68	0.02	29.749 
04:05	58.6	58.6	58.6	94	56.9	4	12	90	0.01	29.749 
04:10	58.4	58.4	58.4	94	56.7	4	12	112	0.01	29.749 
04:15	58.4	58.4	58.4	95	57.0	2	9	112	0.00	29.748 
04:20	58.6	58.6	58.6	95	57.2	3	8	68	0.01	29.748 
04:25	58.7	58.7	58.7	95	57.3	3	7	112	0.00	29.748 
04:30	58.9	58.9	58.9	95	57.5	2	7	68	0.01	29.743 
04:35	58.9	58.9	58.9	95	57.5	2	7	135	0.00	29.743 
04:40	58.9	58.9	58.9	95	57.5	2	4	112	0.01	29.743 
04:45	59.0	59.0	59.0	95	57.6	1	10	315	0.02	29.735 
04:50	58.9	58.9	58.9	95	57.5	2	10	68	0.01	29.735 
04:55	58.9	58.9	58.9	95	57.5	2	7	270	0.01	29.735 
05:00	58.9	58.9	58.9	95	57.5	2	7	315	0.00	29.739 
05:05	58.9	58.9	58.9	95	57.5	1	5	315	0.00	29.739 
05:10	58.9	58.9	58.9	95	57.5	3	10	338	0.01	29.739 
05:15	58.9	58.9	58.9	95	57.5	2	9	338	0.00	29.739 
05:20	58.9	58.9	58.9	95	57.5	3	11	315	0.00	29.739 
05:25	58.9	58.9	58.9	95	57.5	3	11	292	0.02	29.739 
05:30	58.7	58.7	58.7	95	57.3	3	11	315	0.02	29.732 
05:35	58.7	58.7	58.7	95	57.3	3	11	0	0.01	29.732 
05:40	58.7	58.7	58.7	95	57.3	3	10	315	0.02	29.732 
05:45	58.6	58.6	58.6	95	57.2	3	7	338	0.02	29.728 
05:50	58.4	58.4	58.4	95	57.0	2	7	292	0.02	29.728 
05:55	58.4	58.4	58.4	95	57.0	2	10	292	0.01	29.728 
06:00	58.4	58.4	58.4	95	57.0	3	7	315	0.00	29.727 
06:05	58.4	58.4	58.4	95	57.0	3	12	338	0.01	29.727 
06:10	58.4	58.4	58.4	95	57.0	3	10	338	0.01	29.727 
06:15	58.4	58.4	58.4	95	57.0	3	6	315	0.00	29.723 
06:20	58.4	58.4	58.4	95	57.0	3	9	315	0.01	29.723 
06:25	58.4	58.4	58.4	95	57.0	2	6	315	0.00	29.723 
06:30	58.4	58.4	58.4	95	57.0	2	9	270	0.01	29.732 
06:35	58.4	58.4	58.4	95	57.0	2	6	315	0.00	29.732 
06:40	58.4	58.4	58.4	95	57.0	2	9	338	0.01	29.732 
06:45	58.3	58.3	58.3	95	56.9	2	5	315	0.00	29.728 
06:50	58.3	58.3	58.3	95	56.9	2	6	315	0.01	29.728 
06:55	58.3	58.3	58.3	95	56.9	3	12	315	0.01	29.728 
07:00	58.3	58.3	58.3	95	56.9	3	9	315	0.01	29.723 
07:05	58.1	58.1	58.1	95	56.7	4	12	292	0.01	29.723 
07:10	58.1	58.1	58.1	95	56.7	3	7	315	0.01	29.723 
07:15	58.1	58.1	58.1	96	57.0	3	6	315	0.01	29.722 
07:20	58.1	58.1	58.1	95	56.7	3	7	315	0.01	29.722 
07:25	58.3	58.3	58.3	96	57.2	3	7	292	0.01	29.722 
07:30	58.1	58.1	58.1	95	56.7	4	10	315	0.02	29.735 
07:35	58.1	58.1	58.1	96	57.0	2	5	315	0.01	29.735 
07:40	58.1	58.1	58.1	96	57.0	2	6	292	0.00	29.735 
07:45	58.0	58.0	58.0	96	56.9	4	11	292	0.01	29.735 
07:50	57.8	57.8	57.8	96	56.7	3	7	292	0.02	29.735 
07:55	57.6	57.6	57.6	96	56.5	4	8	292	0.02	29.735 
08:00	57.8	57.8	57.8	96	56.7	4	10	292	0.02	29.739 
08:05	58.0	58.0	58.0	96	56.9	6	11	292	0.03	29.739 
08:10	58.3	58.3	58.3	96	57.2	7	15	292	0.03	29.739 
08:15	58.6	58.6	58.6	96	57.5	5	11	315	0.02	29.734 
08:20	58.9	58.9	58.9	96	57.8	5	11	292	0.02	29.734 
08:25	59.0	59.0	59.0	96	57.9	6	15	292	0.02	29.734 
08:30	59.2	59.2	59.2	96	58.1	6	13	292	0.01	29.747 
08:35	59.2	59.2	59.2	96	58.1	5	10	338	0.01	29.747 
08:40	59.2	59.2	59.2	96	58.1	5	14	338	0.01	29.747 
08:45	59.2	59.2	59.2	95	57.8	6	13	315	0.01	29.720 
08:50	59.3	59.3	59.3	95	57.9	5	13	338	0.03	29.720 
08:55	59.2	59.2	59.2	95	57.8	6	15	338	0.03	29.720 
09:00	59.0	59.0	59.0	95	57.6	6	14	338	0.02	29.657 
09:05	59.0	59.0	59.0	95	57.6	6	23	0	0.04	29.657 
09:10	58.9	58.9	58.9	95	57.5	6	23	0	0.04	29.657 
09:15	58.9	58.9	58.9	95	57.5	5	17	315	0.02	29.641 
09:20	58.9	58.9	58.9	95	57.5	5	14	270	0.02	29.641 
09:25	58.7	58.7	58.7	95	57.3	5	13	338	0.02	29.641 
09:30	58.6	58.6	58.6	95	57.2	3	11	0	0.02	29.702 
09:35	58.4	58.4	58.4	95	57.0	4	10	315	0.01	29.702 
09:40	58.3	58.3	58.3	95	56.9	4	13	338	0.01	29.702 
09:45	58.3	58.3	58.3	95	56.9	4	10	315	0.01	29.722 
09:50	58.3	58.3	58.3	95	56.9	2	9	292	0.01	29.722 
09:55	58.3	58.3	58.3	95	56.9	2	7	270	0.00	29.722 
10:00	58.3	58.3	58.3	95	56.9	2	7	270	0.01	29.731 
10:05	58.3	58.3	58.3	95	56.9	3	9	292	0.02	29.731 
10:10	58.4	58.4	58.4	95	57.0	2	8	315	0.01	29.731 
10:15	58.4	58.4	58.4	95	57.0	4	12	315	0.03	29.735 
10:20	58.4	58.4	58.4	95	57.0	4	10	338	0.02	29.735 
10:25	58.6	58.6	58.6	95	57.2	3	12	338	0.01	29.735 
10:30	58.6	58.6	58.6	95	57.2	2	5	292	0.01	29.728 
10:35	58.6	58.6	58.6	95	57.2	3	13	338	0.00	29.728 
10:40	58.3	58.3	58.3	95	56.9	4	11	315	0.01	29.728 
10:45	58.3	58.3	58.3	95	56.9	4	11	338	0.01	29.734 
10:50	58.1	58.1	58.1	95	56.7	3	10	292	0.01	29.734 
10:55	58.0	58.0	58.0	95	56.6	4	9	315	0.00	29.734 
11:00	58.0	58.0	58.0	95	56.6	4	11	338	0.00	29.736 
11:05	58.0	58.0	58.0	95	56.6	5	12	292	0.01	29.736 
11:10	58.1	58.1	58.1	95	56.7	2	9	338	0.00	29.736 
11:15	58.1	58.1	58.1	95	56.7	4	10	292	0.00	29.737 
11:20	58.1	58.1	58.1	95	56.7	4	10	338	0.00	29.737 
11:25	58.3	58.3	58.3	95	56.9	4	11	338	0.00	29.737 
11:30	58.6	58.6	58.6	95	57.2	4	12	315	0.00	29.739 
11:35	58.7	58.7	58.7	95	57.3	4	12	338	0.00	29.739 
11:40	58.7	58.7	58.7	95	57.3	4	10	338	0.00	29.739 
11:45	58.7	58.7	58.7	95	57.3	3	8	315	0.00	29.739 
11:50	58.7	58.7	58.7	95	57.3	4	10	338	0.00	29.739 
11:55	58.9	58.9	58.9	95	57.5	3	8	292	0.00	29.739 
12:00	58.9	58.9	58.9	95	57.5	3	7	338	0.00	29.741 
12:05	58.7	58.7	58.7	94	57.0	4	10	338	0.00	29.741 
12:10	58.9	58.9	58.9	94	57.2	3	9	315	0.00	29.741 
12:15	58.9	58.9	58.9	94	57.2	3	11	315	0.00	29.744 
12:20	58.9	58.9	58.9	94	57.2	5	11	338	0.00	29.744 
12:25	59.0	59.0	59.0	94	57.3	3	9	292	0.00	29.744 
12:30	59.2	59.2	59.2	93	57.2	4	13	315	0.00	29.747 
12:35	59.3	59.3	59.3	93	57.3	5	15	338	0.00	29.747 
12:40	59.3	59.3	59.3	92	57.0	5	13	338	0.00	29.747 
12:45	59.5	59.5	59.5	92	57.2	4	11	338	0.00	29.746 
12:50	59.6	59.6	59.6	91	57.0	3	7	315	0.00	29.746 
12:55	59.9	59.9	59.9	91	57.3	4	12	292	0.00	29.746 
13:00	59.9	59.9	59.9	90	57.0	5	11	338	0.00	29.747 
13:05	60.1	60.1	60.1	89	56.8	4	10	315	0.00	29.747 
13:10	60.2	60.2	60.2	89	56.9	5	13	338	0.00	29.747 
13:15	60.2	60.2	60.2	89	56.9	4	9	338	0.00	29.751 
13:20	60.4	60.4	60.4	89	57.1	3	11	338	0.00	29.751 
13:25	60.2	60.2	60.2	89	56.9	5	10	338	0.00	29.751 
13:30	60.1	60.1	60.1	88	56.5	5	11	338	0.00	29.758 
13:35	60.2	60.2	60.2	89	56.9	4	11	338	0.00	29.758 
13:40	60.2	60.2	60.2	89	56.9	3	10	315	0.00	29.758 
13:45	60.1	60.1	60.1	89	56.8	5	11	338	0.00	29.760 
13:50	59.8	59.8	59.8	89	56.5	6	15	292	0.00	29.760 
13:55	59.6	59.6	59.6	89	56.4	5	12	338	0.00	29.760 
14:00	59.6	59.6	59.6	90	56.7	4	10	338	0.00	29.766 
14:05	59.5	59.5	59.5	90	56.6	5	12	338	0.00	29.766 
14:10	59.2	59.2	59.2	90	56.3	5	14	338	0.00	29.766 
14:15	59.2	59.2	59.2	90	56.3	4	10	338	0.00	29.770 
14:20	59.0	59.0	59.0	91	56.4	5	12	315	0.01	29.770 
14:25	59.0	59.0	59.0	91	56.4	3	10	338	0.00	29.770 
14:30	59.0	59.0	59.0	91	56.4	4	10	338	0.00	29.771 
14:35	59.2	59.2	59.2	92	56.9	4	7	315	0.00	29.771 
14:40	59.2	59.2	59.2	92	56.9	4	13	315	0.00	29.771 
14:45	59.0	59.0	59.0	91	56.4	5	15	338	0.01	29.776 
14:50	59.0	59.0	59.0	91	56.4	4	15	315	0.00	29.776 
14:55	59.0	59.0	59.0	91	56.4	5	10	338	0.00	29.776 
15:00	59.0	59.0	59.0	91	56.4	4	12	338	0.00	29.775 
15:05	59.2	59.2	59.2	90	56.3	6	13	338	0.00	29.775 
15:10	59.5	59.5	59.5	89	56.3	5	13	292	0.00	29.775 
15:15	59.8	59.8	59.8	88	56.2	4	10	315	0.00	29.784 
15:20	60.2	60.2	60.2	87	56.3	4	13	338	0.00	29.784 
15:25	60.4	60.4	60.4	85	55.9	4	9	0	0.00	29.784 
15:30	60.5	60.5	60.5	84	55.6	5	10	292	0.00	29.785 
15:35	60.7	60.7	60.7	84	55.8	4	9	315	0.00	29.785 
15:40	60.7	60.7	60.7	84	55.8	3	11	338	0.00	29.785 
15:45	61.0	61.0	61.0	83	55.8	4	11	292	0.00	29.785 
15:50	61.2	61.2	61.2	82	55.7	4	12	315	0.00	29.785 
15:55	61.5	61.5	61.5	82	55.9	4	11	315	0.00	29.785 
16:00	61.6	61.6	61.6	82	56.0	3	9	338	0.00	29.795 
16:05	61.6	61.6	61.6	81	55.7	3	11	315	0.00	29.795 
16:10	61.8	61.8	61.8	81	55.9	3	6	315	0.00	29.795 
16:15	61.8	61.8	61.8	81	55.9	5	12	338	0.00	29.794 
16:20	61.8	61.8	61.8	81	55.9	5	12	338	0.00	29.794 
16:25	62.0	62.0	62.0	82	56.4	3	10	338	0.00	29.794 
16:30	62.0	62.0	62.0	82	56.4	3	9	338	0.00	29.793 
16:35	62.0	62.0	62.0	82	56.4	3	7	338	0.00	29.793 
16:40	62.3	62.3	62.3	81	56.4	3	7	315	0.00	29.793 
16:45	62.4	62.4	62.4	80	56.1	3	11	338	0.00	29.796 
16:50	62.6	62.6	62.6	81	56.7	4	10	338	0.00	29.796 
16:55	62.6	62.6	62.6	81	56.7	3	8	292	0.00	29.796 
17:00	62.6	62.6	62.6	81	56.7	3	12	338	0.00	29.797 
17:05	62.7	62.7	62.7	81	56.8	3	7	292	0.00	29.797 
17:10	62.9	62.9	62.9	81	57.0	2	6	338	0.00	29.797 
17:15	63.2	63.2	63.2	80	56.9	3	6	0	0.00	29.800 
17:20	63.5	63.5	63.5	79	56.9	3	8	270	0.00	29.800 
17:25	63.7	63.7	63.7	77	56.3	3	7	292	0.00	29.800 
17:30	63.9	63.9	63.9	77	56.5	3	10	338	0.00	29.807 
17:35	63.9	63.9	63.9	74	55.4	3	10	315	0.00	29.807 
17:40	64.0	64.0	64.0	75	55.9	3	12	315	0.00	29.807 
17:45	64.0	64.0	64.0	74	55.5	3	7	338	0.00	29.813 
17:50	64.0	64.0	64.0	73	55.2	2	10	292	0.00	29.813 
17:55	64.2	64.2	64.2	72	55.0	4	11	338	0.00	29.813 
18:00	64.2	64.2	64.2	71	54.6	4	11	315	0.00	29.815 
18:05	64.2	64.2	64.2	72	55.0	2	7	338	0.00	29.815 
18:10	64.3	64.3	64.3	71	54.7	3	7	338	0.00	29.815 
18:15	64.3	64.3	64.3	71	54.7	4	10	338	0.00	29.818 
18:20	64.3	64.3	64.3	69	53.9	3	13	315	0.00	29.818 
18:25	64.3	64.3	64.3	69	53.9	3	10	338	0.00	29.818 
18:30	64.3	64.3	64.3	69	53.9	3	12	315	0.00	29.819 
18:35	64.3	64.3	64.3	69	53.9	3	9	315	0.00	29.819 
18:40	64.3	64.3	64.3	68	53.5	4	12	315	0.00	29.819 
18:45	64.3	64.3	64.3	69	53.9	2	11	338	0.00	29.821 
18:50	64.3	64.3	64.3	66	52.7	4	10	338	0.00	29.821 
18:55	64.5	64.5	64.5	66	52.9	4	9	315	0.00	29.821 
19:00	64.5	64.5	64.5	65	52.5	3	10	338	0.00	29.815 
19:05	64.5	64.5	64.5	65	52.5	3	8	338	0.00	29.815 
19:10	64.7	64.7	64.7	66	53.1	4	9	315	0.00	29.815 
19:15	64.7	64.7	64.7	66	53.1	3	9	292	0.00	29.816 
19:20	64.7	64.7	64.7	66	53.1	2	6	270	0.00	29.816 
19:25	64.7	64.7	64.7	65	52.7	2	6	338	0.00	29.816 
19:30	64.8	64.8	64.8	65	52.8	3	9	292	0.00	29.814 
19:35	64.8	64.8	64.8	65	52.8	3	7	292	0.00	29.814 
19:40	65.0	65.0	65.0	65	52.9	3	8	315	0.00	29.814 
19:45	65.0	65.0	65.0	65	52.9	2	7	292	0.00	29.818 
19:50	65.0	65.0	65.0	64	52.5	3	7	338	0.00	29.818 
19:55	64.8	64.8	64.8	64	52.3	2	7	292	0.00	29.818 
20:00	64.8	64.8	64.8	64	52.3	2	7	338	0.00	29.816 
20:05	64.8	64.8	64.8	64	52.3	2	6	292	0.00	29.816 
20:10	64.8	64.8	64.8	65	52.8	1	4	338	0.00	29.816 
20:15	64.8	64.8	64.8	64	52.3	2	4	292	0.00	29.815 
20:20	65.0	65.0	65.0	63	52.1	2	6	292	0.00	29.815 
20:25	65.0	65.0	65.0	63	52.1	3	6	292	0.00	29.815 
20:30	65.0	65.0	65.0	64	52.5	2	5	292	0.00	29.812 
20:35	65.2	65.2	65.2	63	52.3	2	4	292	0.00	29.812 
20:40	65.2	65.2	65.2	62	51.8	2	5	292	0.00	29.812 
20:45	65.0	65.0	65.0	62	51.7	2	7	315	0.00	29.811 
20:50	65.0	65.0	65.0	62	51.7	3	6	315	0.00	29.811 
20:55	65.0	65.0	65.0	62	51.7	2	9	315	0.00	29.811 
21:00	64.8	64.8	64.8	62	51.5	2	9	292	0.00	29.811 
21:05	64.7	64.7	64.7	62	51.4	2	6	292	0.00	29.811 
21:10	64.7	64.7	64.7	61	50.9	3	5	292	0.00	29.811 
21:15	64.5	64.5	64.5	62	51.2	1	4	292	0.00	29.813 
21:20	64.3	64.3	64.3	62	51.0	1	4	292	0.00	29.813 
21:25	64.2	64.2	64.2	63	51.3	1	2	292	0.00	29.813 
21:30	64.2	64.2	64.2	63	51.3	1	4	292	0.00	29.814 
21:35	64.0	64.0	64.0	63	51.1	2	3	292	0.00	29.814 
21:40	64.2	64.2	64.2	63	51.3	2	6	292	0.00	29.814 
21:45	64.0	64.0	64.0	64	51.6	1	4	292	0.00	29.813 
21:50	64.0	64.0	64.0	64	51.6	2	5	315	0.00	29.813 
21:55	64.0	64.0	64.0	64	51.6	2	4	315	0.00	29.813 
22:00	64.0	64.0	64.0	64	51.6	2	6	315	0.00	29.815 
22:05	64.0	64.0	64.0	64	51.6	2	5	292	0.00	29.815 
22:10	63.9	63.9	63.9	64	51.5	2	5	315	0.00	29.815 
22:15	63.7	63.7	63.7	65	51.7	0	2	292	0.00	29.825 
22:20	63.5	63.5	63.5	67	52.3	1	3	292	0.00	29.825 
22:25	63.2	63.2	63.2	68	52.5	1	3	292	0.00	29.825 
22:30	63.1	63.1	63.1	69	52.8	1	2	292	0.00	29.825 
22:35	62.7	62.7	62.7	71	53.2	1	3	292	0.00	29.825 
22:40	62.4	62.4	62.4	73	53.6	1	3	292	0.00	29.825 
22:45	62.3	62.3	62.3	74	53.9	1	3	292	0.00	29.828 
22:50	62.1	62.1	62.1	75	54.1	1	4	292	0.00	29.828 
22:55	62.0	62.0	62.0	76	54.3	1	3	292	0.00	29.828 
23:00	61.8	61.8	61.8	77	54.5	1	3	292	0.00	29.827 
23:05	61.6	61.6	61.6	77	54.3	1	3	292	0.00	29.827 
23:10	61.6	61.6	61.6	77	54.3	1	3	292	0.00	29.827 
23:15	61.6	61.6	61.6	77	54.3	0	2	292	0.00	29.827 
23:20	61.6	61.6	61.6	77	54.3	0	2	292	0.00	29.827 
23:25	61.6	61.6	61.6	77	54.3	1	3	292	0.00	29.827 
23:30	61.8	61.8	61.8	76	54.1	1	2	292	0.00	29.830 
23:35	62.0	62.0	62.0	75	54.0	2	4	292	0.00	29.830 
23:40	62.1	62.1	62.1	74	53.7	1	3	292	0.00	29.830 
23:45	62.4	62.4	62.4	73	53.6	2	5	292	0.00	29.830 
23:50	62.6	62.6	62.6	73	53.8	1	3	292	0.00	29.830 
23:55	62.7	62.7	62.7	73	53.9	2	5	315	0.00	29.830 

CoCoRaHS
IN-AL-39
A2 Web Hosting
Creative Commons License
GoDaddy
search engine by freefind advanced

loaded 2018-11-18 11:18:57 • last modified 2010-11-18 10:43:29
Privacy PolicyDisclaimer
• wx.awcolley.com is powered by PmWiki v.2002016 •
• all content (unless otherwise noted) © 2018 A W Colley